createdAt,value
2019-06-08T13:16:10.699Z,23.04
2019-06-08T13:21:25.489Z,22.21
2019-06-08T13:26:27.611Z,22.83
2019-06-08T13:31:28.676Z,23.20
2019-06-08T13:36:33.675Z,23.18
2019-06-08T13:41:38.571Z,23.44
2019-06-08T13:46:43.130Z,23.39
2019-06-08T13:51:47.932Z,23.10
2019-06-08T13:56:53.869Z,23.33
2019-06-08T14:01:58.513Z,23.43
2019-06-08T14:07:03.043Z,23.03
2019-06-08T14:12:07.791Z,23.21
2019-06-08T14:17:12.770Z,23.44
2019-06-08T14:22:20.086Z,23.04
2019-06-08T14:27:23.571Z,22.53
2019-06-08T14:32:28.246Z,22.78
2019-06-08T14:37:32.999Z,22.91
2019-06-08T14:42:38.344Z,23.07
2019-06-08T14:47:43.135Z,22.93
2019-06-08T14:52:47.987Z,22.76
2019-06-08T14:57:53.936Z,22.98
2019-06-08T15:02:59.156Z,22.79
2019-06-08T15:08:03.859Z,22.48
2019-06-08T15:13:08.477Z,22.11
2019-06-08T15:18:12.954Z,22.28
2019-06-08T15:23:21.233Z,22.20
2019-06-08T15:28:24.636Z,21.94
2019-06-08T15:33:32.039Z,21.83
2019-06-08T15:38:37.920Z,21.38
2019-06-08T15:43:41.771Z,21.58
2019-06-08T15:48:48.579Z,21.36
2019-06-08T15:53:52.478Z,21.33
2019-06-08T15:58:58.793Z,21.35
2019-06-08T16:04:04.233Z,21.29
2019-06-08T16:09:09.912Z,21.33
2019-06-08T16:14:14.468Z,21.26
2019-06-08T16:19:19.987Z,21.21
2019-06-08T16:24:25.781Z,21.19
2019-06-08T16:29:30.891Z,21.22
2019-06-08T16:34:35.670Z,21.24
2019-06-08T16:39:40.214Z,21.19
2019-06-08T16:44:44.709Z,20.99
2019-06-08T16:49:49.195Z,21.08
2019-06-08T16:54:53.843Z,21.07
2019-06-08T16:59:58.401Z,20.97
2019-06-08T17:05:02.934Z,20.97
2019-06-08T17:10:11.018Z,20.99
2019-06-08T17:15:17.578Z,20.99
2019-06-08T17:20:22.295Z,20.99
2019-06-08T17:25:26.776Z,20.89
2019-06-08T17:30:31.384Z,20.81
2019-06-08T17:35:35.873Z,20.79
2019-06-08T17:40:40.357Z,20.78
2019-06-08T17:45:44.946Z,20.74
2019-06-08T17:50:49.455Z,20.63
2019-06-08T17:55:53.987Z,20.61
2019-06-08T18:00:58.468Z,20.57
2019-06-08T18:06:02.950Z,20.52
2019-06-08T18:11:08.066Z,20.52
2019-06-08T18:16:12.835Z,20.42
2019-06-08T18:21:17.843Z,20.23
2019-06-08T18:26:22.750Z,20.18
2019-06-08T18:31:28.268Z,20.10
2019-06-08T18:36:32.859Z,20.12
2019-06-08T18:41:39.031Z,20.07
2019-06-08T18:46:43.537Z,20.08
2019-06-08T18:51:50.206Z,20.02
2019-06-08T18:56:54.769Z,19.92
2019-06-08T19:01:59.259Z,19.77
2019-06-08T19:07:04.818Z,19.71
2019-06-08T19:12:09.300Z,19.64
2019-06-08T19:17:13.787Z,19.63
2019-06-08T19:22:18.932Z,19.56
2019-06-08T19:27:30.501Z,19.45
2019-06-08T19:32:34.989Z,19.41
2019-06-08T19:37:39.700Z,19.27
2019-06-08T19:42:53.777Z,19.30
2019-06-08T19:47:51.009Z,19.26
2019-06-08T19:52:57.834Z,19.18
2019-06-08T19:58:01.709Z,19.16
2019-06-08T20:03:07.645Z,19.06
2019-06-08T20:08:12.315Z,18.99
2019-06-08T20:13:16.955Z,18.92
2019-06-08T20:18:21.454Z,18.86
2019-06-08T20:23:27.596Z,18.76
2019-06-08T20:28:32.344Z,18.67
2019-06-08T20:33:37.867Z,18.64
2019-06-08T20:38:44.239Z,18.64
2019-06-08T20:43:51.706Z,18.45
2019-06-08T20:48:57.577Z,18.41
2019-06-08T20:54:01.398Z,18.40
2019-06-08T20:59:08.232Z,18.27
2019-06-08T21:04:12.282Z,18.28
2019-06-08T21:09:18.595Z,18.08
2019-06-08T21:14:23.007Z,18.08
2019-06-08T21:19:28.096Z,18.07
2019-06-08T21:24:32.902Z,17.97
2019-06-08T21:29:47.488Z,18.02
2019-06-08T21:34:43.927Z,17.82
2019-06-08T21:39:53.006Z,17.83
2019-06-08T21:44:55.849Z,17.62
2019-06-08T21:50:00.594Z,17.50
2019-06-08T21:55:07.289Z,17.40
2019-06-08T22:00:29.417Z,17.57
2019-06-08T22:05:18.920Z,17.59
2019-06-08T22:10:23.417Z,17.58
2019-06-08T22:15:27.906Z,17.49
2019-06-08T22:20:33.387Z,17.39
2019-06-08T22:25:38.738Z,17.49
2019-06-08T22:30:43.510Z,17.45
2019-06-08T22:35:49.178Z,17.45
2019-06-08T22:40:54.778Z,17.31
2019-06-08T22:46:01.706Z,17.36
2019-06-08T22:51:08.034Z,17.24
2019-06-08T22:56:12.723Z,17.27
2019-06-08T23:01:18.445Z,17.21
2019-06-08T23:06:22.996Z,17.19
